CheckWX is a tool to help pilots better visualize weather data.  It is not intended as a substitute for an official pre-flight weather briefing.

07:39:59 UTC

ETSN TAF
Neuburg Airport
Germany
TAF ETSN 190420Z 1905/1914 18005KT 9999 NSW FEW070 SCT110 TEMPO 1905/1914 21005KT 9999 NSW FEW070 BKN110 BY ETGL

Jun-19@
05:00 UTC

Jun-19 @ 05:00 UTC

Jun-19@
14:00 UTC

Jun-19 @ 14:00 UTC

TAF ETSN 190420Z 1905/1914 18005KT 9999 NSW FEW070 SCT110
Wind
  • 180° at 5 KTS
Conditions
No significant weather
Cloud Levels
  • Few at 7,000' AGL
  • Scattered at 11,000' AGL

Jun-19@
05:00 UTC

Jun-19 @ 05:00 UTC

Jun-19@
14:00 UTC

Jun-19 @ 14:00 UTC

TEMPO 1905/1914 21005KT 9999 NSW FEW070 BKN110 BY ETGL

Temporary

Temporary Changes expected for less than half the time period

Wind
  • 210° at 5 KTS
Conditions
No significant weather
Cloud Levels
  • Few at 7,000' AGL
  • Broken at 11,000' AGL